Time;durP1;ratioP1;P1;durP2;ratioP2;P2;SDS_P1;SDS_P2;PMS_P1;PMS_P2;Temp;Humidity;BMP_temperature;BMP_pressure;BME280_temperature;BME280_humidity;BME280_pressure;Samples;Min_cycle;Max_cycle;Signal;HPM_P1;HPM_P2
2022/07/29 00:02:07;;;;;;;;;;;;;;;30.43;39.44;100939.68;105312;1298;61274;-82
2022/07/29 00:04:34;;;;;;;;;;;;;;;30.43;39.58;100938.06;105385;1300;61245;-82
2022/07/29 00:06:59;;;;;;;;;;;;;;;30.42;39.64;100938.84;105294;1300;61377;-82
2022/07/29 00:09:25;;;;;;;;;;;;;;;30.43;39.45;100939.90;105337;1300;61204;-82
2022/07/29 00:11:50;;;;;;;;;;;;;;;30.42;39.47;100937.05;105368;1300;61325;-82
2022/07/29 00:14:16;;;;;;;;;;;;;;;30.42;39.45;100938.70;105332;1299;61237;-82
2022/07/29 00:16:41;;;;;;;;;;;;;;;30.42;39.56;100936.56;105343;1298;61387;-82
2022/07/29 00:19:07;;;;;;;;;;;;;;;30.42;39.54;100937.14;105356;1299;61249;-82
2022/07/29 00:21:32;;;;;;;;;;;;;;;30.41;39.63;100933.61;105264;1300;61255;-82
2022/07/29 00:23:57;;;;;;;;;;;;;;;30.41;39.57;100938.68;105325;1298;61895;-82
2022/07/29 00:26:24;;;;;;;;;;;;;;;30.41;39.50;100939.93;105257;1300;61315;-82
2022/07/29 00:28:50;;;;;;;;;;;;;;;30.40;39.64;100943.27;105265;1300;61297;-82
2022/07/29 00:31:15;;;;;;;;;;;;;;;30.41;39.49;100948.52;105324;1300;61301;-82
2022/07/29 00:33:41;;;;;;;;;;;;;;;30.40;39.47;100949.30;105264;1300;73961;-82
2022/07/29 00:36:06;;;;;;;;;;;;;;;30.39;39.52;100945.34;105275;1300;61234;-82
2022/07/29 00:38:32;;;;;;;;;;;;;;;30.40;39.69;100947.15;105376;1300;61252;-82
2022/07/29 00:40:57;;;;;;;;;;;;;;;30.40;39.60;100950.41;105346;1300;61314;-82
2022/07/29 00:43:23;;;;;;;;;;;;;;;30.39;39.50;100950.07;105311;1300;61265;-82
2022/07/29 00:45:48;;;;;;;;;;;;;;;30.40;39.51;100950.05;105368;1299;71044;-82
2022/07/29 00:48:14;;;;;;;;;;;;;;;30.39;39.53;100950.10;105276;1299;61886;-82
2022/07/29 00:50:39;;;;;;;;;;;;;;;30.39;39.57;100945.75;105340;1300;61345;-82
2022/07/29 00:53:08;;;;;;;;;;;;;;;30.39;39.51;100945.20;105351;1299;61473;-81
2022/07/29 00:55:33;;;;;;;;;;;;;;;30.39;39.57;100948.13;105330;1298;61364;-81
2022/07/29 00:58:00;;;;;;;;;;;;;;;30.38;39.64;100947.83;105341;1300;61240;-81
2022/07/29 01:00:26;;;;;;;;;;;;;;;30.38;39.56;100950.41;105255;1300;61266;-81
2022/07/29 01:02:51;;;;;;;;;;;;;;;30.38;39.64;100950.17;105258;1298;61278;-81
2022/07/29 01:05:18;;;;;;;;;;;;;;;30.38;39.58;100951.83;105283;1298;61368;-81
2022/07/29 01:07:43;;;;;;;;;;;;;;;30.38;39.61;100951.15;105255;1300;61347;-81
2022/07/29 01:10:09;;;;;;;;;;;;;;;30.38;39.56;100954.95;105380;1299;61265;-81
2022/07/29 01:12:35;;;;;;;;;;;;;;;30.38;39.60;100955.35;105293;1298;61160;-81
2022/07/29 01:15:00;;;;;;;;;;;;;;;30.37;39.61;100956.48;105286;1297;61395;-81
2022/07/29 01:17:27;;;;;;;;;;;;;;;30.38;39.56;100956.23;105312;1300;61269;-81
2022/07/29 01:19:56;;;;;;;;;;;;;;;30.37;39.50;100953.42;105291;1299;61246;-81
2022/07/29 01:22:21;;;;;;;;;;;;;;;30.37;39.66;100953.25;105322;1300;61275;-81
2022/07/29 01:24:56;;;;;;;;;;;;;;;30.37;39.57;100956.68;105331;1300;61261;-82
2022/07/29 01:27:30;;;;;;;;;;;;;;;30.37;39.54;100957.27;105312;1299;73827;-82
2022/07/29 01:29:56;;;;;;;;;;;;;;;30.37;39.66;100954.74;105330;1300;74756;-82
2022/07/29 01:32:24;;;;;;;;;;;;;;;30.37;39.60;100950.77;105354;1299;61310;-81
2022/07/29 01:34:54;;;;;;;;;;;;;;;30.37;39.68;100954.95;105262;1300;61767;-81
2022/07/29 01:37:22;;;;;;;;;;;;;;;30.37;39.43;100952.94;105250;1299;72900;-81
2022/07/29 01:39:47;;;;;;;;;;;;;;;30.36;39.68;100950.05;105312;1299;74892;-81
2022/07/29 01:42:32;;;;;;;;;;;;;;;30.36;39.53;100948.07;105309;1300;61239;-81
2022/07/29 01:45:00;;;;;;;;;;;;;;;30.36;39.57;100947.36;105332;1300;61659;-81
2022/07/29 01:47:37;;;;;;;;;;;;;;;30.36;39.68;100954.26;105223;1300;73042;-81
2022/07/29 01:50:03;;;;;;;;;;;;;;;30.36;39.73;100952.11;105328;1299;75868;-82
2022/07/29 01:52:31;;;;;;;;;;;;;;;30.36;39.72;100951.37;105375;1300;61284;-82
2022/07/29 01:54:57;;;;;;;;;;;;;;;30.35;39.77;100949.96;105259;1300;61156;-82
2022/07/29 01:57:25;;;;;;;;;;;;;;;30.35;39.48;100943.98;105341;1300;61213;-82
2022/07/29 01:59:50;;;;;;;;;;;;;;;30.35;39.58;100944.55;105334;1300;74802;-81
2022/07/29 02:02:16;;;;;;;;;;;;;;;30.35;39.65;100941.83;105316;1298;61339;-81
2022/07/29 02:04:42;;;;;;;;;;;;;;;30.35;39.64;100940.03;105321;1300;61223;-81
2022/07/29 02:07:10;;;;;;;;;;;;;;;30.35;39.71;100940.58;105271;1299;61323;-81
2022/07/29 02:09:36;;;;;;;;;;;;;;;30.35;39.66;100940.77;105336;1300;61245;-81
2022/07/29 02:12:02;;;;;;;;;;;;;;;30.35;39.51;100938.98;105302;1299;61259;-81
2022/07/29 02:14:28;;;;;;;;;;;;;;;30.35;39.60;100943.13;105307;1298;61198;-81
2022/07/29 02:16:54;;;;;;;;;;;;;;;30.34;39.56;100939.02;105224;1300;61287;-81
2022/07/29 02:19:21;;;;;;;;;;;;;;;30.34;39.65;100938.30;105299;1300;61505;-81
2022/07/29 02:21:46;;;;;;;;;;;;;;;30.34;39.57;100938.47;105264;1299;61281;-81
2022/07/29 02:24:12;;;;;;;;;;;;;;;30.34;39.67;100931.99;105353;1300;61216;-81
2022/07/29 02:26:37;;;;;;;;;;;;;;;30.34;39.55;100933.80;105335;1299;61264;-81
2022/07/29 02:29:04;;;;;;;;;;;;;;;30.34;39.54;100931.80;105281;1300;71788;-81
2022/07/29 02:31:30;;;;;;;;;;;;;;;30.33;39.56;100927.70;105289;1300;75654;-81
2022/07/29 02:33:56;;;;;;;;;;;;;;;30.34;39.52;100932.36;105374;1300;61252;-81
2022/07/29 02:36:22;;;;;;;;;;;;;;;30.33;39.62;100933.71;105288;1300;61278;-81
2022/07/29 02:38:50;;;;;;;;;;;;;;;30.33;39.53;100940.04;105382;1300;61265;-81
2022/07/29 02:41:20;;;;;;;;;;;;;;;30.34;39.60;100943.84;105273;1298;74919;-82
2022/07/29 02:43:50;;;;;;;;;;;;;;;30.33;39.49;100944.59;105365;1298;61834;-82
2022/07/29 02:46:18;;;;;;;;;;;;;;;30.33;39.57;100943.13;105388;1300;61261;-82
2022/07/29 02:48:48;;;;;;;;;;;;;;;30.33;39.66;100944.61;105298;1299;72812;-82
2022/07/29 02:51:17;;;;;;;;;;;;;;;30.33;39.72;100945.33;105235;1300;74699;-82
2022/07/29 02:53:43;;;;;;;;;;;;;;;30.33;39.81;100945.70;105304;1299;61206;-82
2022/07/29 02:56:10;;;;;;;;;;;;;;;30.33;39.58;100941.86;105360;1298;61295;-82
2022/07/29 02:58:44;;;;;;;;;;;;;;;30.33;39.68;100944.82;105191;1299;74008;-81
2022/07/29 03:01:16;;;;;;;;;;;;;;;30.33;39.66;100943.01;105326;1299;75906;-82
2022/07/29 03:03:42;;;;;;;;;;;;;;;30.33;39.65;100938.11;105247;1300;61086;-82
2022/07/29 03:06:08;;;;;;;;;;;;;;;30.33;39.68;100936.14;105294;1300;61282;-82
2022/07/29 03:08:33;;;;;;;;;;;;;;;30.32;39.62;100933.79;105297;1299;61288;-82
2022/07/29 03:10:58;;;;;;;;;;;;;;;30.32;39.70;100931.62;105263;1300;61259;-81
2022/07/29 03:13:24;;;;;;;;;;;;;;;30.32;39.66;100932.20;105328;1300;61280;-81
2022/07/29 03:15:49;;;;;;;;;;;;;;;30.32;39.62;100934.34;105201;1298;61197;-81
2022/07/29 03:18:15;;;;;;;;;;;;;;;30.32;39.65;100938.02;105257;1298;61254;-81
2022/07/29 03:20:40;;;;;;;;;;;;;;;30.32;39.63;100941.99;105354;1299;61334;-81
2022/07/29 03:23:06;;;;;;;;;;;;;;;30.32;39.55;100943.66;105328;1300;61268;-81
2022/07/29 03:25:31;;;;;;;;;;;;;;;30.32;39.72;100948.02;105284;1299;61439;-81
2022/07/29 03:27:57;;;;;;;;;;;;;;;30.32;39.56;100957.28;105206;1300;61382;-81
2022/07/29 03:30:23;;;;;;;;;;;;;;;30.32;39.64;100958.55;105387;1300;61268;-81
2022/07/29 03:32:49;;;;;;;;;;;;;;;30.32;39.63;100954.77;105364;1298;61345;-81
2022/07/29 03:35:16;;;;;;;;;;;;;;;30.32;39.78;100955.65;105313;1300;61246;-81
2022/07/29 03:37:42;;;;;;;;;;;;;;;30.31;39.76;100953.71;105294;1300;61276;-82
2022/07/29 03:40:08;;;;;;;;;;;;;;;30.32;39.51;100959.63;105357;1299;61338;-82
2022/07/29 03:42:35;;;;;;;;;;;;;;;30.31;39.60;100962.04;105341;1300;61905;-82
2022/07/29 03:45:05;;;;;;;;;;;;;;;30.31;39.75;100962.05;105243;1299;61390;-82
2022/07/29 03:47:31;;;;;;;;;;;;;;;30.31;39.64;100964.59;105292;1300;61259;-82
2022/07/29 03:49:59;;;;;;;;;;;;;;;30.31;39.69;100966.02;105333;1299;61373;-82
2022/07/29 03:52:25;;;;;;;;;;;;;;;30.32;39.64;100974.17;105337;1299;73093;-82
2022/07/29 03:54:50;;;;;;;;;;;;;;;30.32;39.58;100973.12;105372;1299;61300;-82
2022/07/29 03:57:16;;;;;;;;;;;;;;;30.32;39.71;100977.23;105341;1300;61257;-81
2022/07/29 03:59:41;;;;;;;;;;;;;;;30.32;39.54;100976.18;105264;1300;61351;-81
2022/07/29 04:02:08;;;;;;;;;;;;;;;30.32;39.80;100975.98;105386;1300;61269;-81
2022/07/29 04:04:34;;;;;;;;;;;;;;;30.32;39.70;100976.52;105235;1300;74088;-81
2022/07/29 04:07:00;;;;;;;;;;;;;;;30.32;39.84;100975.09;105261;1300;61351;-82
2022/07/29 04:09:25;;;;;;;;;;;;;;;30.32;39.69;100977.23;105263;1299;61241;-82
2022/07/29 04:11:51;;;;;;;;;;;;;;;30.32;39.60;100977.23;105316;1298;61238;-82
2022/07/29 04:14:16;;;;;;;;;;;;;;;30.32;39.53;100978.53;105362;1300;61410;-82
2022/07/29 04:16:42;;;;;;;;;;;;;;;30.32;39.74;100978.69;105276;1300;61261;-82
2022/07/29 04:19:07;;;;;;;;;;;;;;;30.32;39.66;100980.33;105298;1298;61272;-82
2022/07/29 04:21:39;;;;;;;;;;;;;;;30.32;39.52;100983.25;105301;1300;61803;-82
2022/07/29 04:24:05;;;;;;;;;;;;;;;30.32;39.66;100983.73;105204;1300;61265;-81
2022/07/29 04:26:30;;;;;;;;;;;;;;;30.33;39.59;100988.59;105270;1300;61420;-81
2022/07/29 04:28:56;;;;;;;;;;;;;;;30.33;39.70;100991.46;105234;1299;61306;-81
2022/07/29 04:31:21;;;;;;;;;;;;;;;30.33;39.68;100995.81;105242;1300;61288;-82
2022/07/29 04:33:46;;;;;;;;;;;;;;;30.33;39.63;100995.06;105253;1300;62048;-82
2022/07/29 04:36:12;;;;;;;;;;;;;;;30.33;39.59;100995.06;105274;1299;61272;-82
2022/07/29 04:38:38;;;;;;;;;;;;;;;30.33;39.50;100995.41;105217;1299;61384;-81
2022/07/29 04:41:03;;;;;;;;;;;;;;;30.33;39.63;100995.61;105168;1299;61310;-81
2022/07/29 04:43:29;;;;;;;;;;;;;;;30.33;39.65;100993.60;105212;1300;61268;-81
2022/07/29 04:45:55;;;;;;;;;;;;;;;30.33;39.68;100990.33;105335;1299;61102;-81
2022/07/29 04:48:21;;;;;;;;;;;;;;;30.33;39.57;100989.05;105304;1299;61261;-81
2022/07/29 04:50:46;;;;;;;;;;;;;;;30.33;39.53;100993.05;105344;1299;73931;-81
2022/07/29 04:53:12;;;;;;;;;;;;;;;30.33;39.62;100992.30;105362;1299;61269;-81
2022/07/29 04:55:37;;;;;;;;;;;;;;;30.34;39.77;100996.80;105306;1299;61368;-81
2022/07/29 04:58:03;;;;;;;;;;;;;;;30.34;39.63;100994.98;105354;1298;61260;-81
2022/07/29 05:00:28;;;;;;;;;;;;;;;30.34;39.57;100994.66;105313;1300;61399;-81
2022/07/29 05:02:53;;;;;;;;;;;;;;;30.34;39.72;100994.63;105281;1299;61689;-81
2022/07/29 05:05:19;;;;;;;;;;;;;;;30.34;39.53;100996.64;105272;1298;61936;-81
2022/07/29 05:07:44;;;;;;;;;;;;;;;30.33;39.67;101001.20;105249;1300;61251;-81
2022/07/29 05:10:11;;;;;;;;;;;;;;;30.34;39.53;101001.71;105318;1300;61396;-81
2022/07/29 05:12:36;;;;;;;;;;;;;;;30.34;39.70;101003.72;105351;1298;61275;-81
2022/07/29 05:15:02;;;;;;;;;;;;;;;30.34;39.53;101003.17;105273;1299;61259;-81
2022/07/29 05:17:27;;;;;;;;;;;;;;;30.34;39.51;101004.60;105342;1300;76027;-81
2022/07/29 05:19:53;;;;;;;;;;;;;;;30.35;39.57;101004.88;105231;1299;61253;-82
2022/07/29 05:22:19;;;;;;;;;;;;;;;30.35;39.48;101002.33;105239;1299;61220;-82
2022/07/29 05:24:44;;;;;;;;;;;;;;;30.35;39.56;101002.08;105242;1299;61291;-81
2022/07/29 05:27:10;;;;;;;;;;;;;;;30.36;39.57;100998.96;105296;1300;61342;-82
2022/07/29 05:29:35;;;;;;;;;;;;;;;30.36;39.52;101000.39;105339;1298;74712;-82
2022/07/29 05:32:01;;;;;;;;;;;;;;;30.36;39.51;101002.02;105292;1300;61236;-81
2022/07/29 05:34:26;;;;;;;;;;;;;;;30.37;39.59;101006.48;105249;1300;61367;-81
2022/07/29 05:36:52;;;;;;;;;;;;;;;30.37;39.44;101007.68;105270;1298;61268;-81
2022/07/29 05:39:17;;;;;;;;;;;;;;;30.37;39.66;101007.34;105376;1300;61200;-81
2022/07/29 05:41:43;;;;;;;;;;;;;;;30.38;39.47;101005.84;105302;1299;75817;-81
2022/07/29 05:44:08;;;;;;;;;;;;;;;30.38;39.63;101008.15;105304;1298;61261;-81
2022/07/29 05:46:34;;;;;;;;;;;;;;;30.38;39.37;101011.42;105195;1299;61310;-81
2022/07/29 05:48:59;;;;;;;;;;;;;;;30.38;39.48;101014.11;105181;1298;61273;-82
2022/07/29 05:51:24;;;;;;;;;;;;;;;30.39;39.59;101016.19;105328;1300;61314;-82
2022/07/29 05:53:51;;;;;;;;;;;;;;;30.40;39.50;101013.60;105311;1299;74606;-81
2022/07/29 05:56:16;;;;;;;;;;;;;;;30.40;39.42;101011.77;105330;1299;61264;-81
2022/07/29 05:58:42;;;;;;;;;;;;;;;30.40;39.52;101010.64;105186;1298;61230;-81
2022/07/29 06:01:07;;;;;;;;;;;;;;;30.40;39.48;101008.63;105194;1299;61355;-81
2022/07/29 06:03:32;;;;;;;;;;;;;;;30.41;39.39;101007.65;105334;1298;61281;-81
2022/07/29 06:05:58;;;;;;;;;;;;;;;30.41;39.42;101009.63;105253;1299;61284;-81
2022/07/29 06:08:23;;;;;;;;;;;;;;;30.40;39.28;101008.46;105230;1300;61274;-81
2022/07/29 06:10:49;;;;;;;;;;;;;;;30.41;39.25;101011.33;105286;1298;61361;-81
2022/07/29 06:13:17;;;;;;;;;;;;;;;30.41;39.53;101013.95;105167;1298;61274;-81
2022/07/29 06:15:43;;;;;;;;;;;;;;;30.42;39.40;101013.16;105330;1299;61387;-81
2022/07/29 06:18:09;;;;;;;;;;;;;;;30.43;39.44;101013.98;105307;1300;61263;-81
2022/07/29 06:20:35;;;;;;;;;;;;;;;30.43;39.39;101013.18;105259;1300;61290;-82
2022/07/29 06:23:01;;;;;;;;;;;;;;;30.45;39.29;101013.41;105268;1300;61249;-82
2022/07/29 06:25:28;;;;;;;;;;;;;;;30.45;39.27;101012.13;105317;1300;61287;-82
2022/07/29 06:27:54;;;;;;;;;;;;;;;30.46;39.32;101014.64;105020;1300;383554;-82
2022/07/29 06:30:20;;;;;;;;;;;;;;;30.47;39.44;101011.09;105313;1299;61249;-82
2022/07/29 06:32:46;;;;;;;;;;;;;;;30.47;39.44;101013.41;105233;1298;61324;-82
2022/07/29 06:35:11;;;;;;;;;;;;;;;30.46;39.34;101009.49;105353;1300;61342;-82
2022/07/29 06:37:37;;;;;;;;;;;;;;;30.47;39.32;101007.59;105242;1300;62348;-82
2022/07/29 06:42:47;;;;;;;;;;;;;;;30.48;39.33;101008.41;105200;1300;61346;-81
2022/07/29 06:45:13;;;;;;;;;;;;;;;30.48;39.31;101009.05;105217;1299;61249;-82
2022/07/29 06:47:38;;;;;;;;;;;;;;;30.49;39.13;101010.25;105260;1300;61366;-82
2022/07/29 06:50:04;;;;;;;;;;;;;;;30.50;39.23;101010.73;105310;1300;61259;-82
2022/07/29 06:52:30;;;;;;;;;;;;;;;30.50;39.12;101011.25;105264;1300;61281;-82
2022/07/29 06:54:56;;;;;;;;;;;;;;;30.50;39.35;101006.10;105366;1300;61256;-82
2022/07/29 06:57:21;;;;;;;;;;;;;;;30.51;39.34;101010.80;105248;1300;61919;-82
2022/07/29 06:59:47;;;;;;;;;;;;;;;30.51;39.21;101006.95;105302;1299;61372;-82
2022/07/29 07:02:12;;;;;;;;;;;;;;;30.52;39.21;101011.61;105260;1299;61229;-82
2022/07/29 07:04:39;;;;;;;;;;;;;;;30.52;39.18;101007.73;105208;1300;61254;-82
2022/07/29 07:07:04;;;;;;;;;;;;;;;30.52;39.19;101007.91;105280;1298;61163;-82
2022/07/29 07:09:30;;;;;;;;;;;;;;;30.52;39.15;101004.09;105311;1300;61263;-82
2022/07/29 07:11:55;;;;;;;;;;;;;;;30.53;39.07;101001.84;105250;1299;72966;-82
2022/07/29 07:14:21;;;;;;;;;;;;;;;30.53;39.01;100998.02;105244;1299;61972;-81
2022/07/29 07:16:46;;;;;;;;;;;;;;;30.53;39.04;100999.08;105289;1300;61278;-81
2022/07/29 07:19:11;;;;;;;;;;;;;;;30.53;39.00;101001.06;105293;1300;61370;-81
2022/07/29 07:21:37;;;;;;;;;;;;;;;30.54;39.12;101003.89;105272;1299;61269;-82
2022/07/29 07:24:03;;;;;;;;;;;;;;;30.54;39.08;101001.89;105319;1298;61246;-81
2022/07/29 07:26:28;;;;;;;;;;;;;;;30.54;39.08;100997.35;105257;1299;61374;-83
2022/07/29 07:28:54;;;;;;;;;;;;;;;30.54;38.90;100999.13;105193;1299;61279;-83
2022/07/29 07:31:19;;;;;;;;;;;;;;;30.55;39.06;100997.83;105127;1300;61274;-83
2022/07/29 07:33:45;;;;;;;;;;;;;;;30.55;38.95;100994.73;105365;1299;61265;-83
2022/07/29 07:36:10;;;;;;;;;;;;;;;30.55;38.97;100997.46;105149;1300;72827;-84
2022/07/29 07:38:36;;;;;;;;;;;;;;;30.55;38.92;100991.80;105260;1298;61403;-83
2022/07/29 07:41:01;;;;;;;;;;;;;;;30.55;38.97;100990.66;105263;1299;61240;-83
2022/07/29 07:43:27;;;;;;;;;;;;;;;30.54;39.03;100999.13;105270;1300;61310;-82
2022/07/29 07:45:52;;;;;;;;;;;;;;;30.55;39.07;100998.89;105316;1300;61370;-82
2022/07/29 07:48:18;;;;;;;;;;;;;;;30.55;38.93;100999.02;105353;1300;73065;-82
2022/07/29 07:50:43;;;;;;;;;;;;;;;30.55;39.05;100997.25;105325;1299;61351;-82
2022/07/29 07:53:09;;;;;;;;;;;;;;;30.56;38.87;101004.58;105342;1298;61268;-82
2022/07/29 07:55:39;;;;;;;;;;;;;;;30.56;38.93;101003.63;105285;1299;61252;-82
2022/07/29 07:58:04;;;;;;;;;;;;;;;30.57;38.82;101001.02;105314;1300;72895;-82
2022/07/29 08:00:30;;;;;;;;;;;;;;;30.57;39.02;100999.58;105277;1298;61278;-82
2022/07/29 08:02:55;;;;;;;;;;;;;;;30.57;38.91;101001.72;105357;1299;61358;-82
2022/07/29 08:05:21;;;;;;;;;;;;;;;30.57;39.04;101000.45;105340;1299;61274;-82
2022/07/29 08:07:46;;;;;;;;;;;;;;;30.58;38.86;101004.03;105341;1300;61275;-82
2022/07/29 08:10:12;;;;;;;;;;;;;;;30.57;38.77;101002.43;105257;1300;72756;-82
2022/07/29 08:12:38;;;;;;;;;;;;;;;30.58;38.94;101003.10;105247;1298;61258;-82
2022/07/29 08:15:03;;;;;;;;;;;;;;;30.58;38.77;101002.19;105185;1300;61374;-82
2022/07/29 08:17:29;;;;;;;;;;;;;;;30.58;38.66;101005.63;105042;1300;61953;-82
2022/07/29 08:19:54;;;;;;;;;;;;;;;30.59;38.74;100998.81;105167;1300;61345;-82
2022/07/29 08:22:20;;;;;;;;;;;;;;;30.59;38.82;100996.77;105215;1300;61306;-82
2022/07/29 08:24:52;;;;;;;;;;;;;;;30.60;38.71;100998.34;105318;1299;61252;-82
2022/07/29 08:27:18;;;;;;;;;;;;;;;30.61;38.70;100997.19;105253;1300;61154;-82
2022/07/29 08:29:43;;;;;;;;;;;;;;;30.61;38.71;100994.63;105280;1300;61198;-82
2022/07/29 08:32:09;;;;;;;;;;;;;;;30.61;38.82;100993.00;105281;1300;61259;-82
2022/07/29 08:34:34;;;;;;;;;;;;;;;30.61;38.71;100992.26;105218;1299;61147;-82
2022/07/29 08:37:00;;;;;;;;;;;;;;;30.61;38.75;100989.05;105276;1299;61328;-82
2022/07/29 08:39:25;;;;;;;;;;;;;;;30.61;38.75;100996.64;105367;1300;61356;-82
2022/07/29 08:41:51;;;;;;;;;;;;;;;30.61;38.66;100995.77;105258;1300;59855;-82
2022/07/29 08:44:17;;;;;;;;;;;;;;;30.60;38.69;100991.06;105317;1300;61246;-82
2022/07/29 08:46:43;;;;;;;;;;;;;;;30.61;38.69;100988.88;105185;1300;61261;-82
2022/07/29 08:49:08;;;;;;;;;;;;;;;30.61;38.58;100984.14;105302;1300;61218;-82
2022/07/29 08:51:35;;;;;;;;;;;;;;;30.61;38.49;100989.59;105209;1300;61371;-82
2022/07/29 08:54:01;;;;;;;;;;;;;;;30.61;38.68;100988.30;105321;1298;61265;-82
2022/07/29 08:56:27;;;;;;;;;;;;;;;30.61;38.56;100983.22;105240;1299;61248;-82
2022/07/29 08:58:53;;;;;;;;;;;;;;;30.61;38.56;100976.11;105315;1300;61394;-82
2022/07/29 09:01:22;;;;;;;;;;;;;;;30.61;38.47;100976.45;105329;1300;61215;-82
2022/07/29 09:03:48;;;;;;;;;;;;;;;30.61;38.45;100968.27;105345;1300;61165;-82
2022/07/29 09:06:14;;;;;;;;;;;;;;;30.61;38.36;100968.46;105250;1300;61358;-82
2022/07/29 09:08:40;;;;;;;;;;;;;;;30.61;38.40;100968.29;105192;1298;61143;-82
2022/07/29 09:11:07;;;;;;;;;;;;;;;30.61;38.40;100970.66;105313;1298;61121;-82
2022/07/29 09:13:33;;;;;;;;;;;;;;;30.61;38.29;100962.35;105166;1300;61311;-82
2022/07/29 09:15:58;;;;;;;;;;;;;;;30.61;38.25;100966.88;105516;1300;61304;-83
2022/07/29 09:18:46;;;;;;;;;;;;;;;30.61;38.23;100966.14;105069;1300;61444;-82
2022/07/29 09:24:03;;;;;;;;;;;;;;;30.61;38.25;100959.56;105243;1300;61070;-82
2022/07/29 09:26:32;;;;;;;;;;;;;;;30.62;38.35;100961.30;105237;1299;71558;-82
2022/07/29 09:28:58;;;;;;;;;;;;;;;30.62;38.34;100959.16;105278;1300;74722;-82
2022/07/29 09:31:34;;;;;;;;;;;;;;;30.62;38.23;100961.81;105299;1299;61121;-82
2022/07/29 09:34:00;;;;;;;;;;;;;;;30.62;38.20;100967.27;105274;1300;61201;-83
2022/07/29 09:36:25;;;;;;;;;;;;;;;30.62;38.19;100964.36;105198;1300;61300;-83
2022/07/29 09:38:58;;;;;;;;;;;;;;;30.62;38.24;100965.27;105204;1299;61264;-82
2022/07/29 09:41:24;;;;;;;;;;;;;;;30.62;38.06;100958.73;105220;1300;61313;-82
2022/07/29 09:43:56;;;;;;;;;;;;;;;30.62;38.08;100953.26;105252;1297;61373;-82
2022/07/29 09:46:22;;;;;;;;;;;;;;;30.63;38.12;100960.14;105169;1299;71905;-82
2022/07/29 09:49:05;;;;;;;;;;;;;;;30.62;38.05;100951.62;105202;1300;61329;-82
2022/07/29 09:51:31;;;;;;;;;;;;;;;30.62;38.00;100943.44;105046;1300;61330;-82
2022/07/29 09:53:56;;;;;;;;;;;;;;;30.63;37.98;100942.87;105040;1300;61278;-82
2022/07/29 09:56:40;;;;;;;;;;;;;;;30.63;37.97;100941.92;105198;1300;61290;-83
2022/07/29 09:59:06;;;;;;;;;;;;;;;30.64;37.94;100937.48;105152;1300;74666;-82
2022/07/29 10:01:31;;;;;;;;;;;;;;;30.64;37.89;100941.48;105283;1299;61236;-82
2022/07/29 10:03:57;;;;;;;;;;;;;;;30.63;37.89;100940.96;104940;1302;61150;-82
2022/07/29 10:06:23;;;;;;;;;;;;;;;30.64;37.78;100942.58;105111;1299;61301;-82
2022/07/29 10:08:49;;;;;;;;;;;;;;;30.64;37.64;100939.48;105098;1300;63203;-82
2022/07/29 10:11:18;;;;;;;;;;;;;;;30.63;37.63;100936.10;104999;1301;61400;-82
2022/07/29 10:13:45;;;;;;;;;;;;;;;30.64;37.74;100931.47;105105;1299;61233;-82
2022/07/29 10:16:11;;;;;;;;;;;;;;;30.64;37.84;100928.20;105166;1300;61284;-82
2022/07/29 10:18:40;;;;;;;;;;;;;;;30.63;37.63;100927.17;105145;1300;61300;-82
2022/07/29 10:21:06;;;;;;;;;;;;;;;30.64;37.76;100932.96;105244;1299;61159;-82
2022/07/29 10:23:32;;;;;;;;;;;;;;;30.63;37.51;100933.52;105314;1300;61328;-82
2022/07/29 10:25:57;;;;;;;;;;;;;;;30.64;37.61;100929.33;105212;1300;61251;-82
2022/07/29 10:28:23;;;;;;;;;;;;;;;30.64;37.59;100933.14;105214;1300;61284;-82
2022/07/29 10:30:49;;;;;;;;;;;;;;;30.64;37.43;100926.77;105148;1300;61287;-82
2022/07/29 10:33:30;;;;;;;;;;;;;;;30.64;37.50;100929.48;105334;1300;61464;-82
2022/07/29 10:35:56;;;;;;;;;;;;;;;30.63;37.50;100926.08;105280;1299;72340;-82
2022/07/29 10:38:42;;;;;;;;;;;;;;;30.63;37.29;100917.41;105241;1300;61307;-82
2022/07/29 10:41:26;;;;;;;;;;;;;;;30.63;37.49;100908.35;104657;1305;61356;-82
2022/07/29 10:43:52;;;;;;;;;;;;;;;30.63;37.49;100902.55;104800;1305;61151;-82
2022/07/29 10:46:18;;;;;;;;;;;;;;;30.62;37.52;100896.59;104572;1307;61340;-82
2022/07/29 10:49:02;;;;;;;;;;;;;;;30.62;37.38;100898.63;104779;1305;61473;-82
2022/07/29 10:51:41;;;;;;;;;;;;;;;30.62;37.56;100898.63;104661;1306;61260;-82
2022/07/29 10:54:07;;;;;;;;;;;;;;;30.62;37.49;100892.27;104507;1307;61201;-82
2022/07/29 10:56:33;;;;;;;;;;;;;;;30.62;37.43;100894.69;104800;1305;61319;-82
2022/07/29 10:59:17;;;;;;;;;;;;;;;30.61;37.40;100893.05;104821;1305;61234;-82
2022/07/29 11:01:43;;;;;;;;;;;;;;;30.61;37.28;100889.08;104680;1305;61569;-82
2022/07/29 11:04:09;;;;;;;;;;;;;;;30.61;37.20;100879.83;104536;1305;61520;-82
2022/07/29 11:06:58;;;;;;;;;;;;;;;30.61;37.40;100881.70;104560;1306;61266;-82
2022/07/29 11:09:23;;;;;;;;;;;;;;;30.61;37.32;100875.73;104650;1305;74938;-82
2022/07/29 11:11:49;;;;;;;;;;;;;;;30.60;37.25;100873.40;104787;1305;61364;-82
2022/07/29 11:14:15;;;;;;;;;;;;;;;30.61;37.26;100868.23;104633;1306;61333;-82
2022/07/29 11:17:00;;;;;;;;;;;;;;;30.60;37.18;100864.48;104861;1305;61316;-82
2022/07/29 11:19:26;;;;;;;;;;;;;;;30.61;37.15;100862.81;105221;1300;74682;-82
2022/07/29 11:21:52;;;;;;;;;;;;;;;30.61;37.13;100860.45;105294;1299;61376;-82
2022/07/29 11:24:27;;;;;;;;;;;;;;;30.60;37.20;100859.23;105309;1299;61108;-82
2022/07/29 11:27:25;;;;;;;;;;;;;;;30.60;37.09;100851.06;105277;1300;73928;-82
2022/07/29 11:29:57;;;;;;;;;;;;;;;30.60;37.19;100855.63;104848;1303;76015;-82
2022/07/29 11:32:24;;;;;;;;;;;;;;;30.59;37.11;100849.83;104799;1305;61446;-82
2022/07/29 11:34:50;;;;;;;;;;;;;;;30.60;37.19;100846.91;104895;1302;61358;-82
2022/07/29 11:37:16;;;;;;;;;;;;;;;30.59;37.19;100843.67;104831;1303;61150;-82
2022/07/29 11:39:45;;;;;;;;;;;;;;;30.59;37.12;100845.67;104844;1303;61413;-82
2022/07/29 11:42:20;;;;;;;;;;;;;;;30.59;37.07;100844.05;104888;1303;61415;-82
2022/07/29 11:44:58;;;;;;;;;;;;;;;30.60;37.02;100842.92;104876;1303;61245;-82
2022/07/29 11:47:27;;;;;;;;;;;;;;;30.60;37.13;100839.11;104876;1303;74049;-82
2022/07/29 11:49:53;;;;;;;;;;;;;;;30.59;37.09;100836.12;104852;1303;74438;-82
2022/07/29 11:52:18;;;;;;;;;;;;;;;30.59;37.16;100836.59;104868;1303;61160;-82
2022/07/29 11:54:45;;;;;;;;;;;;;;;30.60;36.99;100834.04;104878;1303;61383;-82
2022/07/29 11:57:11;;;;;;;;;;;;;;;30.60;37.09;100824.79;104838;1304;61265;-82
2022/07/29 11:59:41;;;;;;;;;;;;;;;30.59;36.99;100820.96;104868;1303;61501;-82
2022/07/29 12:02:07;;;;;;;;;;;;;;;30.60;36.90;100818.03;104836;1304;61192;-82
2022/07/29 12:04:32;;;;;;;;;;;;;;;30.60;36.98;100813.84;104856;1303;61250;-82
2022/07/29 12:06:58;;;;;;;;;;;;;;;30.60;37.06;100813.82;105230;1300;61266;-82
2022/07/29 12:09:26;;;;;;;;;;;;;;;30.60;36.95;100814.00;105353;1300;61287;-82
2022/07/29 12:11:58;;;;;;;;;;;;;;;30.60;36.90;100808.36;105291;1300;61269;-82
2022/07/29 12:14:31;;;;;;;;;;;;;;;30.60;36.91;100807.27;105254;1300;61026;-82
2022/07/29 12:16:56;;;;;;;;;;;;;;;30.61;36.83;100801.94;105346;1300;72216;-82
2022/07/29 12:19:22;;;;;;;;;;;;;;;30.61;36.80;100803.73;105353;1298;61478;-82
2022/07/29 12:21:48;;;;;;;;;;;;;;;30.61;36.95;100804.29;105353;1300;61364;-82
2022/07/29 12:24:14;;;;;;;;;;;;;;;30.62;36.85;100796.41;105201;1300;61156;-82
2022/07/29 12:26:59;;;;;;;;;;;;;;;30.62;37.01;100794.02;105260;1299;61228;-82
2022/07/29 12:29:26;;;;;;;;;;;;;;;30.62;36.98;100788.55;105280;1300;75794;-82
2022/07/29 12:31:53;;;;;;;;;;;;;;;30.62;36.88;100781.96;105279;1298;61051;-82